createdAt,value
2023-12-22T00:00:01.722Z,65.00
2023-12-22T00:00:33.633Z,61.67
2023-12-22T00:01:05.525Z,50.33
2023-12-22T00:01:37.429Z,36.33
2023-12-22T00:02:09.307Z,27.67
2023-12-22T00:02:41.117Z,25.00
2023-12-22T00:03:12.999Z,27.00
2023-12-22T00:03:47.070Z,28.33
2023-12-22T00:04:18.962Z,27.00
2023-12-22T00:04:50.897Z,26.67
2023-12-22T00:05:22.741Z,29.67
2023-12-22T00:05:54.578Z,31.33
2023-12-22T00:06:26.410Z,33.00
2023-12-22T00:06:58.293Z,33.67
2023-12-22T00:07:30.186Z,35.33
2023-12-22T00:08:02.184Z,39.00
2023-12-22T00:08:34.044Z,40.00
2023-12-22T00:09:05.853Z,40.00
2023-12-22T00:09:37.721Z,39.33
2023-12-22T00:10:10.598Z,38.67
2023-12-22T00:10:42.556Z,39.00
2023-12-22T00:11:14.385Z,39.00
2023-12-22T00:11:46.213Z,38.67
2023-12-22T00:12:18.061Z,36.00
2023-12-22T00:12:49.883Z,35.00
2023-12-22T00:13:21.805Z,35.33
2023-12-22T00:13:53.728Z,36.67
2023-12-22T00:14:25.512Z,37.00
2023-12-22T00:14:57.332Z,37.00
2023-12-22T00:15:29.177Z,37.33
2023-12-22T00:16:01.525Z,38.00
2023-12-22T00:16:33.435Z,38.33
2023-12-22T00:17:05.263Z,39.00
2023-12-22T00:17:37.104Z,39.00
2023-12-22T00:18:09.119Z,38.67
2023-12-22T00:18:41.050Z,37.67
2023-12-22T00:19:15.576Z,37.33
2023-12-22T00:19:47.535Z,36.67
2023-12-22T00:20:20.262Z,33.33
2023-12-22T00:20:52.157Z,30.33
2023-12-22T00:21:23.986Z,29.00
2023-12-22T00:21:55.791Z,25.67
2023-12-22T00:22:27.667Z,22.00
2023-12-22T00:22:59.514Z,20.33
2023-12-22T00:23:31.319Z,20.00
2023-12-22T00:24:03.200Z,19.00
2023-12-22T00:24:35.088Z,17.67
2023-12-22T00:25:09.003Z,16.33
2023-12-22T00:25:40.776Z,15.00
2023-12-22T00:26:12.712Z,13.67
2023-12-22T00:26:44.569Z,12.33
2023-12-22T00:27:16.431Z,11.00
2023-12-22T00:27:48.490Z,10.00
2023-12-22T00:28:20.447Z,8.67
2023-12-22T00:28:52.370Z,6.33
2023-12-22T00:29:24.260Z,4.67
2023-12-22T00:29:56.099Z,3.67
2023-12-22T00:30:27.999Z,3.00
2023-12-22T00:31:00.059Z,3.00
2023-12-22T00:31:31.903Z,2.67
2023-12-22T00:32:03.957Z,2.00
2023-12-22T00:32:35.737Z,2.00
2023-12-22T00:33:07.651Z,2.00
2023-12-22T00:33:39.797Z,2.00
2023-12-22T00:34:11.650Z,2.00
2023-12-22T00:34:46.334Z,1.00
2023-12-22T00:35:18.445Z,1.00
2023-12-22T00:35:50.302Z,1.00
2023-12-22T00:36:25.470Z,1.00
2023-12-22T00:36:57.257Z,1.00
2023-12-22T00:37:29.097Z,1.00
2023-12-22T00:38:00.934Z,1.00
2023-12-22T00:38:33.256Z,1.00
2023-12-22T00:39:05.383Z,1.00
2023-12-22T00:39:37.196Z,1.00
2023-12-22T00:40:10.490Z,1.00
2023-12-22T00:40:42.294Z,1.00
2023-12-22T00:41:14.515Z,1.00
2023-12-22T00:41:46.294Z,1.00
2023-12-22T00:42:18.069Z,1.00
2023-12-22T00:42:49.904Z,1.00
2023-12-22T00:43:21.749Z,1.00
2023-12-22T00:43:53.591Z,1.00
2023-12-22T00:44:28.555Z,1.00
2023-12-22T00:45:00.371Z,1.00
2023-12-22T00:45:32.377Z,1.00
2023-12-22T00:46:04.284Z,1.00
2023-12-22T00:46:36.175Z,1.00
2023-12-22T00:47:08.009Z,1.00
2023-12-22T00:47:39.795Z,1.00
2023-12-22T00:48:11.805Z,1.00
2023-12-22T00:48:43.695Z,1.00
2023-12-22T00:49:15.650Z,1.00
2023-12-22T00:49:47.554Z,1.00
2023-12-22T00:50:19.549Z,1.00
2023-12-22T00:50:51.370Z,1.00
2023-12-22T00:51:23.201Z,1.00
2023-12-22T00:51:55.040Z,1.00
2023-12-22T00:52:27.575Z,1.00
2023-12-22T00:52:59.457Z,1.00
2023-12-22T00:53:31.289Z,1.00
2023-12-22T00:54:03.062Z,1.00
2023-12-22T00:54:34.835Z,1.00
2023-12-22T00:55:06.749Z,1.00
2023-12-22T00:55:38.639Z,1.00
2023-12-22T00:56:10.484Z,1.00
2023-12-22T00:56:42.350Z,1.00
2023-12-22T00:57:17.059Z,1.00
2023-12-22T00:57:49.209Z,1.00
2023-12-22T00:58:21.229Z,1.00
2023-12-22T00:58:58.338Z,1.00
2023-12-22T00:59:36.901Z,1.00
2023-12-22T01:00:12.072Z,1.00
2023-12-22T01:00:43.964Z,1.00
2023-12-22T01:01:15.823Z,1.00
2023-12-22T01:01:47.886Z,1.00
2023-12-22T01:02:19.734Z,1.00
2023-12-22T01:02:51.604Z,1.00
2023-12-22T01:03:23.611Z,1.00
2023-12-22T01:03:55.504Z,1.00
2023-12-22T01:04:27.388Z,1.00
2023-12-22T01:04:59.331Z,1.00
2023-12-22T01:05:31.336Z,1.00
2023-12-22T01:06:03.978Z,1.00
2023-12-22T01:06:39.908Z,1.00
2023-12-22T01:07:12.761Z,1.00
2023-12-22T01:07:44.671Z,1.00
2023-12-22T01:08:16.532Z,1.00
2023-12-22T01:08:51.039Z,1.00
2023-12-22T01:09:22.869Z,1.00
2023-12-22T01:09:55.012Z,1.00
2023-12-22T01:10:26.797Z,1.00
2023-12-22T01:10:58.620Z,1.00
2023-12-22T01:11:30.512Z,1.00
2023-12-22T01:12:05.290Z,1.00
2023-12-22T01:12:37.170Z,1.00
2023-12-22T01:13:09.021Z,1.00
2023-12-22T01:13:40.860Z,1.00
2023-12-22T01:14:14.284Z,1.00
2023-12-22T01:14:46.426Z,1.00
2023-12-22T01:15:18.326Z,1.00
2023-12-22T01:15:50.182Z,1.00
2023-12-22T01:16:23.624Z,1.00
2023-12-22T01:16:55.659Z,1.00
2023-12-22T01:17:27.529Z,1.00
2023-12-22T01:17:59.536Z,1.00
2023-12-22T01:18:32.734Z,1.00
2023-12-22T01:19:04.797Z,1.00
2023-12-22T01:19:36.714Z,1.00
2023-12-22T01:20:08.863Z,1.00
2023-12-22T01:20:40.685Z,1.00
2023-12-22T01:21:12.526Z,1.00
2023-12-22T01:21:44.392Z,1.00
2023-12-22T01:22:16.258Z,1.00
2023-12-22T01:22:48.158Z,1.00
2023-12-22T01:23:20.140Z,1.00
2023-12-22T01:23:51.950Z,1.00
2023-12-22T01:24:24.581Z,1.00
2023-12-22T01:24:56.368Z,1.00
2023-12-22T01:25:28.242Z,1.00
2023-12-22T01:26:00.095Z,1.00
2023-12-22T01:26:31.883Z,1.00
2023-12-22T01:27:03.798Z,1.00
2023-12-22T01:27:35.577Z,1.00
2023-12-22T01:28:07.408Z,1.00
2023-12-22T01:28:39.284Z,1.00
2023-12-22T01:29:11.249Z,1.00
2023-12-22T01:29:43.114Z,1.00
2023-12-22T01:30:14.945Z,1.00
2023-12-22T01:30:46.769Z,1.00
2023-12-22T01:31:18.653Z,1.00
2023-12-22T01:31:50.539Z,1.00
2023-12-22T01:32:22.337Z,1.00
2023-12-22T01:32:54.429Z,1.00
2023-12-22T01:33:26.317Z,1.00
2023-12-22T01:33:58.163Z,1.00
2023-12-22T01:34:30.084Z,1.00
2023-12-22T01:35:10.411Z,1.00
2023-12-22T01:35:42.218Z,1.00
2023-12-22T01:36:14.617Z,1.00
2023-12-22T01:36:46.476Z,1.00
2023-12-22T01:37:18.290Z,1.00
2023-12-22T01:37:50.819Z,1.00
2023-12-22T01:38:22.753Z,1.00
2023-12-22T01:38:54.566Z,1.00
2023-12-22T01:39:26.380Z,1.00
2023-12-22T01:39:58.143Z,1.00
2023-12-22T01:40:30.035Z,1.00
2023-12-22T01:41:01.962Z,1.00
2023-12-22T01:41:33.836Z,1.00
2023-12-22T01:42:05.653Z,1.00
2023-12-22T01:42:37.429Z,1.00
2023-12-22T01:43:09.276Z,1.00
2023-12-22T01:43:41.147Z,1.00
2023-12-22T01:44:13.030Z,1.00
2023-12-22T01:44:44.854Z,1.00
2023-12-22T01:45:16.750Z,1.00
2023-12-22T01:45:50.458Z,1.00
2023-12-22T01:46:22.626Z,1.00
2023-12-22T01:46:54.907Z,1.00
2023-12-22T01:47:27.048Z,1.00
2023-12-22T01:47:59.155Z,1.00
2023-12-22T01:48:31.797Z,1.00
2023-12-22T01:49:04.555Z,1.00
2023-12-22T01:49:36.376Z,1.00
2023-12-22T01:50:12.132Z,1.00
2023-12-22T01:50:45.513Z,1.00
2023-12-22T01:51:17.398Z,1.00
2023-12-22T01:51:50.530Z,1.00
2023-12-22T01:52:23.671Z,1.00
2023-12-22T01:52:55.962Z,1.00
2023-12-22T01:53:29.143Z,1.00
2023-12-22T01:54:01.864Z,1.00
2023-12-22T01:54:33.708Z,1.00
2023-12-22T01:55:08.046Z,1.00
2023-12-22T01:55:40.357Z,1.00
2023-12-22T01:56:12.332Z,1.00
2023-12-22T01:56:44.326Z,1.00
2023-12-22T01:57:18.850Z,1.00
2023-12-22T01:57:51.069Z,1.00
2023-12-22T01:58:27.252Z,1.00
2023-12-22T01:59:02.014Z,1.00
2023-12-22T01:59:35.829Z,1.00
2023-12-22T02:00:09.573Z,1.00
2023-12-22T02:00:41.910Z,1.00
2023-12-22T02:01:14.898Z,1.00
2023-12-22T02:01:47.249Z,1.00
2023-12-22T02:02:19.234Z,1.00
2023-12-22T02:02:51.062Z,1.00
2023-12-22T02:03:23.948Z,1.00
2023-12-22T02:03:57.020Z,1.00
2023-12-22T02:04:31.050Z,1.00
2023-12-22T02:05:02.906Z,1.00
2023-12-22T02:05:35.074Z,1.00
2023-12-22T02:06:07.187Z,1.00
2023-12-22T02:06:39.229Z,1.00
2023-12-22T02:07:11.956Z,1.00
2023-12-22T02:07:44.891Z,1.00
2023-12-22T02:08:19.361Z,1.00
2023-12-22T02:08:51.497Z,1.00
2023-12-22T02:09:23.339Z,1.00
2023-12-22T02:09:55.139Z,1.00
2023-12-22T02:10:27.027Z,1.00
2023-12-22T02:10:58.834Z,1.00
2023-12-22T02:11:30.678Z,1.00
2023-12-22T02:12:02.582Z,1.00
2023-12-22T02:12:34.432Z,1.00
2023-12-22T02:13:06.738Z,1.00
2023-12-22T02:13:38.679Z,1.00
2023-12-22T02:14:10.750Z,1.00
2023-12-22T02:14:43.150Z,1.00
2023-12-22T02:15:14.985Z,1.00
2023-12-22T02:15:51.336Z,1.00
2023-12-22T02:16:38.988Z,1.00
2023-12-22T02:17:24.223Z,1.00
2023-12-22T02:18:27.658Z,1.67
2023-12-22T02:19:05.367Z,2.00
2023-12-22T02:19:40.037Z,2.00
2023-12-22T02:20:12.657Z,2.00
2023-12-22T02:20:45.524Z,2.00
2023-12-22T02:21:17.361Z,2.00
2023-12-22T02:22:08.890Z,2.00
2023-12-22T02:22:41.786Z,2.00
2023-12-22T02:23:13.616Z,2.00
2023-12-22T02:23:45.437Z,2.00
2023-12-22T02:24:17.229Z,2.00
2023-12-22T02:24:49.119Z,2.00
2023-12-22T02:25:21.124Z,2.00
2023-12-22T02:26:06.472Z,2.00
2023-12-22T02:26:46.495Z,2.00
2023-12-22T02:27:41.387Z,2.00
2023-12-22T02:28:20.380Z,2.00
2023-12-22T02:28:54.123Z,2.00
2023-12-22T02:29:27.898Z,2.00
2023-12-22T02:30:09.491Z,2.00
2023-12-22T02:31:07.144Z,2.00
2023-12-22T02:31:46.207Z,2.00
2023-12-22T02:32:29.327Z,2.00
2023-12-22T02:33:04.465Z,2.00
2023-12-22T02:33:40.179Z,2.00
2023-12-22T02:34:20.596Z,2.00
2023-12-22T02:34:56.191Z,2.00
2023-12-22T02:35:30.553Z,2.00
2023-12-22T02:36:05.509Z,2.00
2023-12-22T02:36:39.921Z,2.00
2023-12-22T02:37:12.748Z,2.00
2023-12-22T02:37:48.316Z,2.00
2023-12-22T02:38:21.635Z,2.00
2023-12-22T02:38:56.343Z,2.67
2023-12-22T02:39:28.176Z,3.00
2023-12-22T02:40:01.620Z,3.00
2023-12-22T02:40:35.422Z,3.00
2023-12-22T02:41:09.559Z,3.00
2023-12-22T02:41:42.690Z,3.00
2023-12-22T02:42:14.955Z,3.00
2023-12-22T02:42:47.451Z,3.00
2023-12-22T02:43:19.250Z,3.00
2023-12-22T02:43:51.281Z,3.00
2023-12-22T02:44:23.518Z,3.00
2023-12-22T02:44:55.340Z,3.00
2023-12-22T02:45:27.265Z,3.00
2023-12-22T02:45:59.074Z,3.00
2023-12-22T02:46:30.901Z,3.00
2023-12-22T02:47:02.738Z,3.00
2023-12-22T02:47:34.606Z,3.00
2023-12-22T02:48:06.984Z,3.00
2023-12-22T02:48:38.888Z,3.00
2023-12-22T02:49:10.946Z,3.00
2023-12-22T02:49:42.790Z,3.00
2023-12-22T02:50:16.934Z,3.00
2023-12-22T02:50:48.819Z,3.00
2023-12-22T02:51:20.748Z,3.00
2023-12-22T02:51:52.618Z,3.00
2023-12-22T02:52:24.469Z,3.00
2023-12-22T02:52:56.523Z,3.00
2023-12-22T02:53:28.437Z,3.00
2023-12-22T02:54:00.269Z,3.00
2023-12-22T02:54:34.194Z,3.00
2023-12-22T02:55:06.699Z,3.00
2023-12-22T02:55:38.585Z,3.00
2023-12-22T02:56:10.419Z,3.00
2023-12-22T02:56:43.948Z,3.00
2023-12-22T02:57:15.762Z,3.00
2023-12-22T02:57:47.933Z,3.00
2023-12-22T02:58:20.078Z,3.00
2023-12-22T02:58:51.956Z,3.00
2023-12-22T02:59:24.291Z,3.00
2023-12-22T02:59:56.232Z,3.00
2023-12-22T03:00:28.025Z,3.00
2023-12-22T03:00:59.947Z,3.00
2023-12-22T03:01:31.798Z,3.00
2023-12-22T03:02:03.765Z,3.00
2023-12-22T03:02:35.574Z,3.00
2023-12-22T03:03:07.465Z,3.00
2023-12-22T03:03:39.318Z,3.00
2023-12-22T03:04:11.172Z,3.00
2023-12-22T03:04:43.071Z,3.00
2023-12-22T03:05:15.113Z,3.00
2023-12-22T03:05:47.014Z,3.00
2023-12-22T03:06:18.941Z,3.00
2023-12-22T03:06:50.802Z,3.00
2023-12-22T03:07:22.659Z,3.00
2023-12-22T03:07:54.596Z,3.00
2023-12-22T03:08:26.441Z,3.00
2023-12-22T03:08:58.306Z,3.00
2023-12-22T03:09:30.055Z,3.00
2023-12-22T03:10:01.832Z,3.33
2023-12-22T03:10:33.618Z,4.00
2023-12-22T03:11:05.546Z,4.00
2023-12-22T03:11:37.389Z,4.00
2023-12-22T03:12:10.201Z,4.00
2023-12-22T03:12:42.009Z,4.00
2023-12-22T03:13:13.806Z,4.00
2023-12-22T03:13:45.677Z,4.00
2023-12-22T03:14:17.592Z,4.00
2023-12-22T03:14:49.356Z,4.00
2023-12-22T03:15:21.166Z,4.00
2023-12-22T03:15:52.928Z,4.00
2023-12-22T03:16:24.749Z,4.00
2023-12-22T03:16:56.607Z,4.00
2023-12-22T03:17:28.482Z,4.00
2023-12-22T03:18:00.393Z,4.00
2023-12-22T03:18:32.294Z,4.00
2023-12-22T03:19:04.139Z,4.00
2023-12-22T03:19:36.093Z,4.00
2023-12-22T03:20:08.178Z,4.00
2023-12-22T03:20:40.146Z,4.00
2023-12-22T03:21:19.764Z,4.00
2023-12-22T03:21:51.735Z,4.00
2023-12-22T03:22:26.433Z,4.00
2023-12-22T03:22:58.234Z,4.00
2023-12-22T03:23:30.053Z,4.00
2023-12-22T03:24:01.835Z,4.00
2023-12-22T03:24:33.674Z,4.00
2023-12-22T03:25:05.785Z,4.00
2023-12-22T03:25:37.610Z,4.00
2023-12-22T03:26:09.545Z,4.00
2023-12-22T03:26:41.352Z,4.00
2023-12-22T03:27:17.487Z,4.00
2023-12-22T03:27:49.583Z,4.00
2023-12-22T03:28:21.557Z,4.00
2023-12-22T03:28:53.452Z,4.00
2023-12-22T03:29:25.256Z,4.00
2023-12-22T03:29:57.080Z,4.00
2023-12-22T03:30:28.908Z,4.00
2023-12-22T03:31:00.726Z,4.00
2023-12-22T03:31:32.623Z,4.00
2023-12-22T03:32:04.755Z,4.00
2023-12-22T03:32:36.554Z,4.00
2023-12-22T03:33:08.442Z,4.00
2023-12-22T03:33:40.341Z,4.00
2023-12-22T03:34:12.676Z,4.00
2023-12-22T03:34:44.516Z,3.00
2023-12-22T03:35:16.364Z,3.00
2023-12-22T03:35:48.180Z,3.00
2023-12-22T03:36:19.991Z,3.00
2023-12-22T03:36:51.751Z,3.00
2023-12-22T03:37:23.645Z,3.00
2023-12-22T03:37:55.534Z,3.00
2023-12-22T03:38:27.344Z,3.00
2023-12-22T03:38:59.323Z,3.00
2023-12-22T03:39:31.224Z,3.00
2023-12-22T03:40:03.157Z,3.00
2023-12-22T03:40:35.141Z,3.00
2023-12-22T03:41:07.036Z,3.00
2023-12-22T03:41:38.837Z,3.00
2023-12-22T03:42:10.874Z,2.33
2023-12-22T03:42:42.633Z,2.00
2023-12-22T03:43:14.378Z,2.00
2023-12-22T03:43:46.221Z,2.00
2023-12-22T03:44:18.312Z,2.00
2023-12-22T03:44:50.113Z,2.00
2023-12-22T03:45:21.936Z,2.00
2023-12-22T03:45:53.690Z,2.00
2023-12-22T03:46:25.812Z,2.00
2023-12-22T03:46:57.626Z,2.00
2023-12-22T03:47:29.477Z,2.00
2023-12-22T03:48:01.335Z,2.00
2023-12-22T03:48:33.186Z,2.00
2023-12-22T03:49:05.456Z,2.00
2023-12-22T03:49:37.413Z,2.00
2023-12-22T03:50:09.918Z,2.00
2023-12-22T03:50:41.757Z,2.00
2023-12-22T03:51:14.432Z,2.00
2023-12-22T03:51:46.263Z,2.00
2023-12-22T03:52:18.103Z,2.00
2023-12-22T03:52:50.041Z,2.00
2023-12-22T03:53:21.927Z,2.00
2023-12-22T03:53:53.718Z,2.00
2023-12-22T03:54:25.564Z,2.00
2023-12-22T03:54:57.385Z,2.00
2023-12-22T03:55:29.226Z,2.00
2023-12-22T03:56:01.077Z,2.00
2023-12-22T03:56:33.105Z,2.00
2023-12-22T03:57:04.981Z,2.00
2023-12-22T03:57:36.743Z,2.00
2023-12-22T03:58:08.839Z,2.00
2023-12-22T03:58:40.723Z,2.00
2023-12-22T03:59:12.587Z,2.00
2023-12-22T03:59:44.762Z,2.00
2023-12-22T04:00:17.699Z,2.00
2023-12-22T04:00:49.660Z,2.00
2023-12-22T04:01:21.543Z,2.00
2023-12-22T04:01:58.340Z,2.00
2023-12-22T04:02:30.195Z,2.00
2023-12-22T04:03:02.118Z,2.00
2023-12-22T04:03:34.133Z,2.00
2023-12-22T04:04:05.934Z,2.00
2023-12-22T04:04:41.077Z,2.00
2023-12-22T04:05:13.338Z,2.00
2023-12-22T04:05:45.271Z,2.00
2023-12-22T04:06:17.196Z,2.00
2023-12-22T04:06:49.034Z,2.00
2023-12-22T04:07:20.865Z,2.00
2023-12-22T04:07:52.806Z,2.67
2023-12-22T04:08:24.730Z,3.00
2023-12-22T04:08:56.563Z,3.00
2023-12-22T04:09:28.404Z,3.00
2023-12-22T04:10:00.449Z,3.00
2023-12-22T04:10:32.509Z,3.00
2023-12-22T04:11:04.763Z,3.00
2023-12-22T04:11:40.540Z,3.00
2023-12-22T04:12:12.698Z,3.00
2023-12-22T04:12:44.808Z,3.00
2023-12-22T04:13:16.633Z,3.00
2023-12-22T04:13:48.583Z,3.00
2023-12-22T04:14:20.480Z,3.00
2023-12-22T04:14:53.305Z,3.00
2023-12-22T04:15:27.587Z,3.00
2023-12-22T04:15:59.370Z,3.00
2023-12-22T04:16:31.213Z,3.00
2023-12-22T04:17:03.109Z,3.00
2023-12-22T04:17:34.951Z,3.00
2023-12-22T04:18:06.873Z,3.00
2023-12-22T04:18:38.941Z,3.00
2023-12-22T04:19:12.321Z,3.00
2023-12-22T04:19:44.564Z,3.00
2023-12-22T04:20:17.108Z,3.00
2023-12-22T04:20:50.966Z,3.00
2023-12-22T04:21:22.773Z,3.00
2023-12-22T04:21:54.570Z,3.00
2023-12-22T04:22:26.376Z,3.00
2023-12-22T04:22:58.262Z,3.00
2023-12-22T04:23:30.088Z,3.00
2023-12-22T04:24:01.940Z,3.00
2023-12-22T04:24:33.750Z,4.00
2023-12-22T04:25:07.371Z,4.00
2023-12-22T04:25:39.309Z,4.00
2023-12-22T04:26:11.174Z,4.00
2023-12-22T04:26:42.977Z,4.00
2023-12-22T04:27:14.802Z,4.00
2023-12-22T04:27:46.902Z,4.00
2023-12-22T04:28:18.915Z,4.00
2023-12-22T04:28:50.815Z,4.00
2023-12-22T04:29:22.695Z,4.00
2023-12-22T04:29:54.537Z,4.00
2023-12-22T04:30:29.324Z,4.00
2023-12-22T04:31:02.400Z,4.33
2023-12-22T04:31:34.355Z,5.00
2023-12-22T04:32:06.366Z,5.00
2023-12-22T04:32:38.319Z,5.00
2023-12-22T04:33:10.343Z,5.00
2023-12-22T04:33:42.204Z,5.00
2023-12-22T04:34:17.095Z,5.00
2023-12-22T04:34:49.083Z,5.00
2023-12-22T04:35:20.950Z,5.00
2023-12-22T04:35:52.789Z,5.67
2023-12-22T04:36:24.673Z,6.00
2023-12-22T04:36:56.534Z,6.00
2023-12-22T04:37:28.431Z,6.00
2023-12-22T04:38:00.616Z,6.00
2023-12-22T04:38:32.471Z,6.00
2023-12-22T04:39:04.293Z,6.00
2023-12-22T04:39:36.143Z,6.00
2023-12-22T04:40:08.339Z,6.00
2023-12-22T04:40:40.208Z,6.00
2023-12-22T04:41:12.025Z,6.00
2023-12-22T04:41:43.834Z,6.00
2023-12-22T04:42:15.758Z,6.00
2023-12-22T04:42:47.883Z,6.00
2023-12-22T04:43:19.814Z,6.00
2023-12-22T04:43:51.671Z,6.00
2023-12-22T04:44:23.448Z,6.00
2023-12-22T04:44:55.243Z,6.00
2023-12-22T04:45:27.040Z,6.00
2023-12-22T04:45:59.043Z,6.00
2023-12-22T04:47:03.274Z,6.00
2023-12-22T04:47:36.972Z,6.00
2023-12-22T04:48:08.935Z,6.00
2023-12-22T04:48:41.089Z,6.00
2023-12-22T04:49:13.099Z,6.00
2023-12-22T04:49:45.245Z,6.00
2023-12-22T04:50:17.107Z,6.00
2023-12-22T04:50:48.943Z,6.00
2023-12-22T04:51:20.719Z,6.00
2023-12-22T04:51:52.588Z,6.00
2023-12-22T04:52:24.774Z,6.00
2023-12-22T04:52:56.789Z,6.00
2023-12-22T04:53:28.823Z,6.00
2023-12-22T04:54:00.735Z,6.00
2023-12-22T04:54:32.572Z,6.00
2023-12-22T04:55:04.620Z,6.00
2023-12-22T04:55:36.495Z,6.00
2023-12-22T04:56:08.272Z,6.00
2023-12-22T04:56:40.091Z,6.00
2023-12-22T04:57:11.890Z,6.00
2023-12-22T04:57:43.697Z,6.00
2023-12-22T04:58:15.514Z,6.00
2023-12-22T04:58:47.364Z,6.67
2023-12-22T04:59:19.215Z,7.00
2023-12-22T04:59:51.040Z,7.00
2023-12-22T05:00:22.890Z,7.00
2023-12-22T05:00:54.924Z,7.00
2023-12-22T05:01:26.759Z,7.33
2023-12-22T05:01:59.016Z,8.00
2023-12-22T05:02:30.857Z,8.00
2023-12-22T05:03:02.896Z,8.00
2023-12-22T05:03:34.831Z,8.33
2023-12-22T05:04:09.962Z,9.00
2023-12-22T05:04:43.568Z,9.00
2023-12-22T05:05:15.481Z,9.00
2023-12-22T05:05:47.872Z,9.67
2023-12-22T05:06:19.701Z,10.00
2023-12-22T05:06:51.508Z,10.00
2023-12-22T05:07:23.438Z,10.00
2023-12-22T05:07:55.274Z,10.00
2023-12-22T05:08:27.086Z,10.00
2023-12-22T05:08:58.960Z,10.00
2023-12-22T05:09:30.783Z,10.00
2023-12-22T05:10:02.678Z,10.00
2023-12-22T05:10:34.551Z,10.00
2023-12-22T05:11:06.453Z,10.00
2023-12-22T05:11:38.474Z,10.00
2023-12-22T05:12:10.462Z,10.00
2023-12-22T05:12:42.283Z,10.00
2023-12-22T05:13:14.146Z,10.00
2023-12-22T05:13:46.172Z,10.00
2023-12-22T05:14:18.097Z,10.00
2023-12-22T05:14:51.408Z,10.00
2023-12-22T05:15:23.204Z,11.00
2023-12-22T05:15:56.071Z,11.00
2023-12-22T05:16:27.903Z,11.33
2023-12-22T05:16:59.740Z,12.00
2023-12-22T05:17:31.576Z,12.00
2023-12-22T05:18:03.598Z,12.00
2023-12-22T05:18:35.559Z,12.00
2023-12-22T05:19:07.562Z,11.67
2023-12-22T05:19:39.471Z,11.00
2023-12-22T05:20:11.536Z,11.00
2023-12-22T05:20:44.745Z,11.00
2023-12-22T05:21:16.572Z,11.00
2023-12-22T05:21:50.514Z,11.00
2023-12-22T05:22:22.363Z,11.00
2023-12-22T05:22:54.241Z,11.00
2023-12-22T05:23:26.159Z,10.67
2023-12-22T05:23:57.984Z,10.00
2023-12-22T05:24:29.819Z,10.00
2023-12-22T05:25:01.590Z,10.00
2023-12-22T05:25:33.633Z,10.67
2023-12-22T05:26:05.536Z,11.00
2023-12-22T05:26:37.387Z,11.00
2023-12-22T05:27:09.369Z,11.00
2023-12-22T05:27:44.231Z,11.00
2023-12-22T05:28:16.095Z,10.67
2023-12-22T05:28:48.300Z,10.00
2023-12-22T05:29:20.846Z,10.00
2023-12-22T05:29:52.726Z,10.00
2023-12-22T05:30:24.514Z,10.00
2023-12-22T05:30:56.408Z,10.00
2023-12-22T05:31:28.955Z,10.00
2023-12-22T05:32:01.295Z,10.00
2023-12-22T05:32:33.330Z,9.00
2023-12-22T05:33:05.202Z,9.00
2023-12-22T05:33:37.029Z,9.00
2023-12-22T05:34:11.464Z,9.00
2023-12-22T05:34:43.502Z,9.00
2023-12-22T05:35:15.488Z,9.00
2023-12-22T05:35:47.490Z,9.00
2023-12-22T05:36:19.365Z,9.00
2023-12-22T05:36:51.114Z,9.00
2023-12-22T05:37:22.919Z,9.00
2023-12-22T05:37:54.874Z,9.00
2023-12-22T05:38:26.731Z,9.00
2023-12-22T05:38:58.539Z,8.67
2023-12-22T05:39:30.362Z,8.00
2023-12-22T05:40:02.162Z,8.00
2023-12-22T05:40:34.183Z,8.00
2023-12-22T05:41:07.636Z,8.00
2023-12-22T05:41:39.486Z,8.67
2023-12-22T05:42:11.318Z,9.00
2023-12-22T05:42:43.099Z,8.67
2023-12-22T05:43:15.772Z,8.00
2023-12-22T05:43:47.674Z,8.00
2023-12-22T05:44:19.479Z,8.00
2023-12-22T05:44:51.594Z,8.00
2023-12-22T05:45:23.395Z,8.00
2023-12-22T05:45:55.345Z,8.00
2023-12-22T05:46:27.247Z,9.00
2023-12-22T05:46:59.191Z,9.00
2023-12-22T05:47:31.286Z,9.00
2023-12-22T05:48:03.297Z,9.00
2023-12-22T05:48:35.337Z,9.00
2023-12-22T05:49:07.441Z,9.00
2023-12-22T05:49:42.237Z,9.00
2023-12-22T05:50:14.312Z,9.00
2023-12-22T05:50:46.245Z,9.00
2023-12-22T05:51:18.094Z,9.00
2023-12-22T05:51:49.901Z,9.00
2023-12-22T05:52:21.766Z,9.00
2023-12-22T05:52:53.662Z,9.00
2023-12-22T05:53:25.549Z,9.00
2023-12-22T05:53:57.336Z,9.00
2023-12-22T05:54:29.096Z,9.00
2023-12-22T05:55:00.927Z,9.00
2023-12-22T05:55:32.983Z,9.00
2023-12-22T05:56:05.153Z,9.00
2023-12-22T05:56:36.972Z,9.00
2023-12-22T05:57:08.756Z,9.00
2023-12-22T05:57:40.587Z,9.33
2023-12-22T05:58:12.404Z,10.00
2023-12-22T05:58:44.246Z,10.00
2023-12-22T05:59:16.076Z,10.00
2023-12-22T05:59:47.940Z,10.00
2023-12-22T06:00:19.874Z,10.00
2023-12-22T06:00:51.767Z,10.00
2023-12-22T06:01:23.686Z,10.00
2023-12-22T06:01:55.669Z,10.00
2023-12-22T06:02:27.531Z,10.00
2023-12-22T06:02:59.359Z,10.67
2023-12-22T06:03:31.218Z,11.00
2023-12-22T06:04:03.111Z,11.00
2023-12-22T06:04:36.100Z,11.00
2023-12-22T06:05:08.392Z,11.00
2023-12-22T06:05:40.543Z,11.00
2023-12-22T06:06:12.855Z,11.00
2023-12-22T06:06:44.760Z,11.00
2023-12-22T06:07:16.746Z,10.67
2023-12-22T06:07:48.900Z,10.00
2023-12-22T06:08:20.964Z,10.00
2023-12-22T06:08:52.746Z,10.00
2023-12-22T06:09:24.592Z,10.00
2023-12-22T06:09:56.476Z,10.00
2023-12-22T06:10:28.716Z,10.33
2023-12-22T06:11:00.624Z,11.00
2023-12-22T06:11:32.536Z,11.00
2023-12-22T06:12:04.536Z,11.00
2023-12-22T06:12:37.518Z,11.00
2023-12-22T06:13:09.307Z,11.00
2023-12-22T06:13:41.184Z,11.00
2023-12-22T06:14:13.045Z,11.00
2023-12-22T06:14:44.913Z,11.00
2023-12-22T06:15:16.797Z,11.00
2023-12-22T06:15:48.579Z,11.00
2023-12-22T06:16:21.742Z,11.00
2023-12-22T06:16:54.960Z,11.00
2023-12-22T06:17:26.964Z,11.00
2023-12-22T06:17:59.315Z,11.00
2023-12-22T06:18:31.204Z,11.00
2023-12-22T06:19:03.116Z,11.00
2023-12-22T06:19:36.982Z,11.00
2023-12-22T06:20:09.396Z,10.33
2023-12-22T06:20:41.283Z,10.00
2023-12-22T06:21:13.392Z,10.00
2023-12-22T06:21:45.349Z,10.00
2023-12-22T06:22:17.177Z,10.00
2023-12-22T06:22:48.971Z,10.00
2023-12-22T06:23:20.771Z,10.00
2023-12-22T06:23:52.631Z,10.00
2023-12-22T06:24:27.497Z,10.00
2023-12-22T06:24:59.392Z,10.00
2023-12-22T06:25:31.270Z,10.00
2023-12-22T06:26:09.040Z,10.00
2023-12-22T06:26:40.834Z,10.00
2023-12-22T06:27:12.592Z,10.00
2023-12-22T06:27:47.492Z,10.00
2023-12-22T06:28:19.680Z,10.00
2023-12-22T06:28:51.518Z,10.00
2023-12-22T06:29:24.183Z,10.00
2023-12-22T06:29:57.011Z,10.00
2023-12-22T06:30:28.808Z,10.00
2023-12-22T06:31:00.618Z,9.00
2023-12-22T06:31:32.602Z,9.00
2023-12-22T06:32:07.265Z,9.00
2023-12-22T06:32:41.235Z,9.00
2023-12-22T06:33:13.422Z,9.00
2023-12-22T06:33:45.831Z,9.00
2023-12-22T06:34:18.320Z,9.00
2023-12-22T06:34:50.161Z,9.00
2023-12-22T06:35:24.907Z,9.00
2023-12-22T06:35:56.787Z,9.00
2023-12-22T06:36:29.332Z,9.00
2023-12-22T06:37:01.137Z,9.00
2023-12-22T06:37:32.951Z,9.00
2023-12-22T06:38:06.912Z,9.00
2023-12-22T06:38:38.820Z,9.00
2023-12-22T06:39:10.639Z,9.00
2023-12-22T06:39:42.445Z,9.00
2023-12-22T06:40:14.480Z,9.00
2023-12-22T06:40:48.216Z,9.00
2023-12-22T06:41:27.762Z,9.00
2023-12-22T06:42:00.365Z,9.00
2023-12-22T06:42:32.188Z,9.00
2023-12-22T06:43:04.327Z,9.00
2023-12-22T06:43:36.151Z,9.00
2023-12-22T06:44:08.008Z,9.00
2023-12-22T06:44:42.355Z,9.00
2023-12-22T06:45:14.180Z,9.00
2023-12-22T06:45:46.044Z,9.00
2023-12-22T06:46:18.941Z,9.00
2023-12-22T06:46:50.909Z,9.33
2023-12-22T06:47:22.945Z,10.00
2023-12-22T06:47:55.150Z,10.00
2023-12-22T06:48:27.579Z,10.00
2023-12-22T06:48:59.962Z,10.00
2023-12-22T06:49:32.582Z,10.00
2023-12-22T06:50:05.168Z,10.00
2023-12-22T06:50:38.895Z,10.00
2023-12-22T06:51:20.553Z,10.00
2023-12-22T06:51:52.998Z,10.00
2023-12-22T06:52:24.855Z,10.00
2023-12-22T06:52:56.791Z,10.00
2023-12-22T06:53:28.770Z,10.00
2023-12-22T06:54:03.601Z,10.00
2023-12-22T06:54:35.802Z,10.00
2023-12-22T06:55:08.063Z,9.00
2023-12-22T06:55:40.439Z,9.00
2023-12-22T06:56:19.706Z,9.00
2023-12-22T06:56:51.912Z,9.00
2023-12-22T06:57:25.571Z,9.00
2023-12-22T06:57:57.928Z,9.00
2023-12-22T06:58:29.799Z,9.00
2023-12-22T06:59:01.831Z,9.00
2023-12-22T06:59:35.069Z,9.00
2023-12-22T07:00:08.092Z,9.00
2023-12-22T07:00:42.161Z,9.00
2023-12-22T07:01:22.489Z,9.00
2023-12-22T07:02:02.848Z,9.00
2023-12-22T07:02:42.453Z,9.00
2023-12-22T07:03:14.351Z,9.00
2023-12-22T07:03:46.248Z,9.00
2023-12-22T07:04:18.140Z,9.00
2023-12-22T07:05:11.255Z,9.00
2023-12-22T07:05:43.241Z,9.00
2023-12-22T07:06:21.910Z,9.00
2023-12-22T07:06:53.687Z,9.00
2023-12-22T07:07:25.541Z,9.00
2023-12-22T07:07:57.431Z,9.00
2023-12-22T07:08:29.331Z,9.00
2023-12-22T07:09:13.010Z,9.67
2023-12-22T07:09:44.910Z,10.00
2023-12-22T07:10:16.720Z,10.00
2023-12-22T07:10:48.579Z,10.33
2023-12-22T07:11:25.773Z,11.00